createdAt,value
2022-11-28T00:00:22.667Z,102296.69
2022-11-28T00:03:44.693Z,102295.88
2022-11-28T00:07:06.846Z,102303.59
2022-11-28T00:10:30.311Z,102309.50
2022-11-28T00:13:52.787Z,102308.63
2022-11-28T00:17:14.510Z,102306.81
2022-11-28T00:20:36.645Z,102318.03
2022-11-28T00:23:59.568Z,102310.34
2022-11-28T00:27:23.051Z,102302.44
2022-11-28T00:30:45.415Z,102317.19
2022-11-28T00:34:07.343Z,102315.50
2022-11-28T00:37:29.438Z,102306.03
2022-11-28T00:40:50.953Z,102314.69
2022-11-28T00:44:14.353Z,102312.13
2022-11-28T00:47:36.206Z,102307.00
2022-11-28T00:51:07.472Z,102307.00
2022-11-28T00:54:29.360Z,102308.69
2022-11-28T00:57:51.423Z,102295.81
2022-11-28T01:01:17.267Z,102301.91
2022-11-28T01:04:39.004Z,102288.97
2022-11-28T01:08:01.150Z,102301.91
2022-11-28T01:11:23.549Z,102283.72
2022-11-28T01:14:45.395Z,102300.06
2022-11-28T01:18:08.847Z,102294.84
2022-11-28T01:21:30.883Z,102295.81
2022-11-28T01:24:53.248Z,102299.31
2022-11-28T01:28:15.146Z,102293.25
2022-11-28T01:31:37.357Z,102295.81
2022-11-28T01:35:01.255Z,102289.06
2022-11-28T01:38:23.548Z,102285.47
2022-11-28T01:41:45.241Z,102280.22
2022-11-28T01:45:16.324Z,102280.34
2022-11-28T01:48:43.074Z,102276.06
2022-11-28T01:52:10.299Z,102279.50
2022-11-28T01:55:35.065Z,102282.81
2022-11-28T01:59:00.880Z,102268.25
2022-11-28T02:02:29.146Z,102271.72
2022-11-28T02:05:52.391Z,102271.78
2022-11-28T02:09:17.576Z,102273.47
2022-11-28T02:13:00.040Z,102270.91
2022-11-28T02:16:37.763Z,102278.50
2022-11-28T02:20:32.420Z,102270.72
2022-11-28T02:24:29.760Z,102274.19
2022-11-28T02:28:26.751Z,102273.22
2022-11-28T02:32:26.506Z,102275.00
2022-11-28T02:35:57.155Z,102265.63
2022-11-28T02:39:29.088Z,102256.97
2022-11-28T02:43:02.367Z,102259.59
2022-11-28T02:46:29.938Z,102254.50
2022-11-28T02:49:58.913Z,102263.91
2022-11-28T02:53:25.851Z,102256.22
2022-11-28T02:56:49.304Z,102258.78
2022-11-28T03:00:29.589Z,102258.78
2022-11-28T03:04:04.602Z,102257.94
2022-11-28T03:07:43.832Z,102264.75
2022-11-28T03:11:14.933Z,102264.72
2022-11-28T03:14:49.972Z,102266.25
2022-11-28T03:18:15.228Z,102270.63
2022-11-28T03:21:42.425Z,102272.31
2022-11-28T03:25:15.228Z,102258.41
2022-11-28T03:28:43.760Z,102268.81
2022-11-28T03:32:10.237Z,102267.19
2022-11-28T03:35:37.624Z,102262.84
2022-11-28T03:39:06.219Z,102264.53
2022-11-28T03:42:33.732Z,102262.75
2022-11-28T03:46:01.260Z,102263.53
2022-11-28T03:49:28.875Z,102263.63
2022-11-28T03:52:56.500Z,102253.16
2022-11-28T03:56:24.255Z,102260.88
2022-11-28T03:59:50.560Z,102267.88
2022-11-28T04:03:19.765Z,102279.00
2022-11-28T04:06:55.536Z,102278.16
2022-11-28T04:10:22.612Z,102267.09
2022-11-28T04:13:50.066Z,102267.88
2022-11-28T04:17:21.547Z,102271.31
2022-11-28T04:20:47.372Z,102271.22
2022-11-28T04:24:13.716Z,102258.28
2022-11-28T04:27:39.147Z,102267.97
2022-11-28T04:31:04.123Z,102272.22
2022-11-28T04:34:29.634Z,102268.75
2022-11-28T04:37:54.238Z,102272.16
2022-11-28T04:41:19.883Z,102264.44
2022-11-28T04:44:49.307Z,102266.09
2022-11-28T04:48:11.576Z,102269.59
2022-11-28T04:51:43.211Z,102250.53
2022-11-28T04:55:11.408Z,102258.31
2022-11-28T04:58:37.676Z,102262.75
2022-11-28T05:02:04.392Z,102258.41
2022-11-28T05:05:28.597Z,102259.25
2022-11-28T05:08:51.770Z,102260.09
2022-11-28T05:12:13.862Z,102259.34
2022-11-28T05:15:35.871Z,102255.81
2022-11-28T05:18:57.934Z,102254.97
2022-11-28T05:22:20.076Z,102261.13
2022-11-28T05:25:43.208Z,102256.88
2022-11-28T05:29:06.046Z,102257.75
2022-11-28T05:32:30.970Z,102264.56
2022-11-28T05:35:53.125Z,102266.25
2022-11-28T05:39:15.044Z,102266.09
2022-11-28T05:42:38.551Z,102268.00
2022-11-28T05:46:00.710Z,102274.81
2022-11-28T05:49:23.992Z,102270.53
2022-11-28T05:52:45.892Z,102250.63
2022-11-28T05:56:09.183Z,102275.78
2022-11-28T05:59:32.725Z,102280.88
2022-11-28T06:02:59.881Z,102276.66
2022-11-28T06:06:23.759Z,102280.03
2022-11-28T06:09:46.158Z,102286.81
2022-11-28T06:13:08.292Z,102283.38
2022-11-28T06:16:33.035Z,102283.38
2022-11-28T06:19:54.535Z,102280.00
2022-11-28T06:23:16.016Z,102287.72
2022-11-28T06:26:38.165Z,102289.38
2022-11-28T06:29:59.967Z,102291.16
2022-11-28T06:33:23.590Z,102281.75
2022-11-28T06:36:45.626Z,102279.09
2022-11-28T06:40:08.958Z,102278.31
2022-11-28T06:43:31.689Z,102276.63
2022-11-28T06:46:54.883Z,102270.63
2022-11-28T06:50:18.451Z,102274.91
2022-11-28T06:53:41.224Z,102270.63
2022-11-28T06:57:06.134Z,102274.16
2022-11-28T07:00:28.445Z,102274.19
2022-11-28T07:03:50.744Z,102275.06
2022-11-28T07:07:16.640Z,102277.75
2022-11-28T07:10:38.713Z,102281.09
2022-11-28T07:14:04.207Z,102283.75
2022-11-28T07:17:25.983Z,102289.00
2022-11-28T07:20:48.074Z,102279.59
2022-11-28T07:24:11.490Z,102274.53
2022-11-28T07:27:33.069Z,102271.19
2022-11-28T07:31:03.756Z,102275.56
2022-11-28T07:34:25.529Z,102273.88
2022-11-28T07:37:47.137Z,102268.72
2022-11-28T07:41:12.307Z,102272.09
2022-11-28T07:44:34.273Z,102269.63
2022-11-28T07:47:56.235Z,102259.38
2022-11-28T07:51:21.767Z,102282.75
2022-11-28T07:54:43.803Z,102280.09
2022-11-28T07:58:07.029Z,102288.84
2022-11-28T08:01:31.156Z,102284.59
2022-11-28T08:04:55.391Z,102286.38
2022-11-28T08:08:18.313Z,102277.91
2022-11-28T08:11:40.328Z,102274.50
2022-11-28T08:15:05.682Z,102284.28
2022-11-28T08:18:27.520Z,102294.72
2022-11-28T08:21:49.559Z,102291.41
2022-11-28T08:25:11.818Z,102290.63
2022-11-28T08:28:33.997Z,102279.19
2022-11-28T08:31:57.359Z,102282.75
2022-11-28T08:35:19.357Z,102299.97
2022-11-28T08:38:49.930Z,102294.03
2022-11-28T08:42:25.129Z,102288.75
2022-11-28T08:45:47.645Z,102290.50
2022-11-28T08:49:10.928Z,102285.25
2022-11-28T08:52:34.481Z,102298.09
2022-11-28T08:55:56.353Z,102304.16
2022-11-28T08:59:18.497Z,102305.00
2022-11-28T09:02:40.240Z,102306.72
2022-11-28T09:06:03.751Z,102312.78
2022-11-28T09:09:27.123Z,102316.22
2022-11-28T09:12:52.254Z,102317.16
2022-11-28T09:16:15.094Z,102319.06
2022-11-28T09:19:37.037Z,102315.56
2022-11-28T09:23:00.436Z,102322.63
2022-11-28T09:26:24.380Z,102319.31
2022-11-28T09:29:46.549Z,102319.31
2022-11-28T09:33:08.955Z,102309.91
2022-11-28T09:36:31.151Z,102315.03
2022-11-28T09:40:12.031Z,102313.41
2022-11-28T09:43:39.645Z,102312.56
2022-11-28T09:47:07.153Z,102313.53
2022-11-28T09:50:34.975Z,102307.63
2022-11-28T09:54:05.607Z,102293.06
2022-11-28T09:57:35.706Z,102312.06
2022-11-28T10:01:10.157Z,102308.63
2022-11-28T10:04:42.453Z,102313.00
2022-11-28T10:08:16.392Z,102319.06
2022-11-28T10:11:57.508Z,102322.41
2022-11-28T10:15:35.850Z,102313.88
2022-11-28T10:19:02.451Z,102313.94
2022-11-28T10:22:36.283Z,102317.38
2022-11-28T10:26:02.316Z,102322.50
2022-11-28T10:29:30.896Z,102315.66
2022-11-28T10:33:03.926Z,102317.34
2022-11-28T10:36:29.192Z,102301.53
2022-11-28T10:39:51.119Z,102316.44
2022-11-28T10:43:25.108Z,102318.06
2022-11-28T10:46:58.181Z,102321.50
2022-11-28T10:50:33.859Z,102322.41
2022-11-28T10:54:11.679Z,102311.13
2022-11-28T10:57:41.071Z,102310.38
2022-11-28T11:01:03.961Z,102302.63
2022-11-28T11:04:28.460Z,102313.94
2022-11-28T11:07:55.009Z,102313.94
2022-11-28T11:11:27.769Z,102306.25
2022-11-28T11:14:55.844Z,102308.94
2022-11-28T11:18:25.439Z,102318.38
2022-11-28T11:22:07.511Z,102300.84
2022-11-28T11:25:33.722Z,102319.00
2022-11-28T11:28:55.954Z,102322.41
2022-11-28T11:32:30.937Z,102328.47
2022-11-28T11:35:53.714Z,102321.66
2022-11-28T11:39:23.637Z,102310.50
2022-11-28T11:42:54.046Z,102313.06
2022-11-28T11:46:21.144Z,102326.78
2022-11-28T11:50:16.950Z,102320.72
2022-11-28T11:53:38.785Z,102321.56
2022-11-28T11:57:32.123Z,102324.16
2022-11-28T12:00:49.277Z,102324.28
2022-11-28T12:04:43.584Z,102326.78
2022-11-28T12:08:07.803Z,102330.28
2022-11-28T12:11:33.662Z,102330.34
2022-11-28T12:14:56.189Z,102335.41
2022-11-28T12:18:37.298Z,102340.41
2022-11-28T12:22:17.038Z,102337.00
2022-11-28T12:25:45.763Z,102337.13
2022-11-28T12:32:58.186Z,102332.66
2022-11-28T12:36:30.325Z,102340.22
2022-11-28T12:39:58.203Z,102335.84
2022-11-28T12:43:31.795Z,102330.78
2022-11-28T12:47:01.268Z,102330.78
2022-11-28T12:50:33.190Z,102322.16
2022-11-28T12:54:05.839Z,102310.88
2022-11-28T12:57:35.625Z,102322.16
2022-11-28T13:01:01.838Z,102328.06
2022-11-28T13:04:45.684Z,102329.75
2022-11-28T13:08:34.741Z,102323.78
2022-11-28T13:12:11.332Z,102334.03
2022-11-28T13:15:53.165Z,102333.88
2022-11-28T13:19:28.748Z,102333.84
2022-11-28T13:23:01.017Z,102330.38
2022-11-28T13:26:38.351Z,102335.41
2022-11-28T13:30:15.627Z,102335.28
2022-11-28T13:33:52.564Z,102329.28
2022-11-28T13:41:28.787Z,102325.78
2022-11-28T13:45:01.057Z,102321.44
2022-11-28T13:49:21.461Z,102326.47
2022-11-28T13:52:45.767Z,102328.09
2022-11-28T13:56:26.591Z,102330.59
2022-11-28T14:00:04.058Z,102330.47
2022-11-28T14:03:26.274Z,102338.09
2022-11-28T14:06:59.196Z,102331.22
2022-11-28T14:10:41.508Z,102331.22
2022-11-28T14:14:52.377Z,102336.38
2022-11-28T14:22:39.087Z,102337.22
2022-11-28T14:26:01.919Z,102341.63
2022-11-28T14:29:28.778Z,102338.34
2022-11-28T14:32:57.490Z,102342.63
2022-11-28T14:36:26.330Z,102345.22
2022-11-28T14:39:51.262Z,102342.63
2022-11-28T14:43:43.076Z,102350.41
2022-11-28T14:47:22.783Z,102348.69
2022-11-28T14:51:00.630Z,102339.16
2022-11-28T14:54:25.336Z,102358.13
2022-11-28T14:58:00.861Z,102345.94
2022-11-28T15:01:35.517Z,102353.78
2022-11-28T15:05:12.775Z,102355.53
2022-11-28T15:08:57.795Z,102354.69
2022-11-28T15:12:27.793Z,102349.50
2022-11-28T15:15:52.687Z,102354.63
2022-11-28T15:19:21.898Z,102363.16
2022-11-28T15:22:45.700Z,102357.19
2022-11-28T15:26:08.109Z,102365.91
2022-11-28T15:29:30.616Z,102369.31
2022-11-28T15:32:56.885Z,102371.88
2022-11-28T15:36:27.276Z,102375.38
2022-11-28T15:39:50.959Z,102373.72
2022-11-28T15:43:15.761Z,102373.72
2022-11-28T15:46:38.868Z,102359.00
2022-11-28T15:50:05.672Z,102368.56
2022-11-28T15:53:27.398Z,102371.97
2022-11-28T15:56:57.829Z,102378.81
2022-11-28T16:00:22.107Z,102371.06
2022-11-28T16:03:53.492Z,102372.81
2022-11-28T16:07:17.770Z,102376.19
2022-11-28T16:10:39.902Z,102365.91
2022-11-28T16:14:09.821Z,102365.91
2022-11-28T16:17:34.872Z,102375.47
2022-11-28T16:20:58.369Z,102372.06
2022-11-28T16:24:27.131Z,102351.28
2022-11-28T16:27:53.266Z,102371.31
2022-11-28T16:31:23.910Z,102364.47
2022-11-28T16:34:47.215Z,102369.63
2022-11-28T16:38:17.709Z,102366.19
2022-11-28T16:41:43.388Z,102361.91
2022-11-28T16:45:11.200Z,102359.34
2022-11-28T16:48:36.650Z,102374.78
2022-11-28T16:52:29.813Z,102373.97
2022-11-28T16:55:51.936Z,102365.50
2022-11-28T16:59:16.761Z,102366.28
2022-11-28T17:02:39.223Z,102367.13
2022-11-28T17:06:01.290Z,102368.06
2022-11-28T17:09:23.313Z,102375.66
2022-11-28T17:12:45.430Z,102369.69
2022-11-28T17:16:16.419Z,102366.19
2022-11-28T17:19:38.666Z,102370.63
2022-11-28T17:23:00.768Z,102363.78
2022-11-28T17:26:22.840Z,102363.81
2022-11-28T17:29:45.170Z,102369.81
2022-11-28T17:33:08.453Z,102370.72
2022-11-28T17:36:30.554Z,102367.22
2022-11-28T17:40:10.134Z,102376.75
2022-11-28T17:43:37.437Z,102375.88
2022-11-28T17:47:02.425Z,102377.53
2022-11-28T17:50:26.165Z,102380.19
2022-11-28T17:53:48.102Z,102384.50
2022-11-28T17:57:10.899Z,102385.41
2022-11-28T18:00:34.137Z,102390.53
2022-11-28T18:03:56.191Z,102394.00
2022-11-28T18:07:19.418Z,102394.03
2022-11-28T18:10:42.243Z,102397.47
2022-11-28T18:14:04.285Z,102405.22
2022-11-28T18:17:29.252Z,102403.63
2022-11-28T18:20:51.078Z,102400.22
2022-11-28T18:24:14.689Z,102395.94
2022-11-28T18:27:36.724Z,102392.59
2022-11-28T18:30:58.565Z,102392.53
2022-11-28T18:34:20.759Z,102390.78
2022-11-28T18:37:43.112Z,102387.34
2022-11-28T18:41:07.735Z,102388.16
2022-11-28T18:44:29.695Z,102390.81
2022-11-28T18:47:55.900Z,102395.16
2022-11-28T18:51:22.454Z,102394.28
2022-11-28T18:54:44.935Z,102392.59
2022-11-28T18:58:07.920Z,102390.88
2022-11-28T19:01:33.833Z,102386.44
2022-11-28T19:04:56.164Z,102392.50
2022-11-28T19:08:17.973Z,102395.94
2022-11-28T19:11:39.989Z,102396.03
2022-11-28T19:15:03.608Z,102397.81
2022-11-28T19:18:25.515Z,102389.94
2022-11-28T19:21:47.120Z,102399.44
2022-11-28T19:25:10.146Z,102408.00
2022-11-28T19:28:32.229Z,102410.66
2022-11-28T19:31:55.644Z,102408.00
2022-11-28T19:35:17.637Z,102416.72
2022-11-28T19:38:42.722Z,102415.81
2022-11-28T19:42:04.881Z,102409.88
2022-11-28T19:45:27.053Z,102411.56
2022-11-28T19:48:51.903Z,102416.72
2022-11-28T19:52:13.694Z,102417.56
2022-11-28T19:55:36.292Z,102419.28
2022-11-28T19:59:01.337Z,102419.28
2022-11-28T20:02:23.668Z,102415.00
2022-11-28T20:05:46.889Z,102420.13
2022-11-28T20:09:10.488Z,102420.13
2022-11-28T20:12:33.039Z,102419.38
2022-11-28T20:15:57.523Z,102421.13
2022-11-28T20:19:19.367Z,102419.47
2022-11-28T20:22:43.387Z,102420.31
2022-11-28T20:26:06.866Z,102422.06
2022-11-28T20:29:29.994Z,102422.06
2022-11-28T20:32:52.174Z,102422.91
2022-11-28T20:36:16.518Z,102417.66
2022-11-28T20:39:40.177Z,102427.28
2022-11-28T20:43:02.857Z,102422.97
2022-11-28T20:46:27.310Z,102433.25
2022-11-28T20:49:49.253Z,102439.25
2022-11-28T20:53:11.552Z,102437.44
2022-11-28T20:57:04.979Z,102445.31
2022-11-28T21:00:26.364Z,102441.84
2022-11-28T21:03:49.328Z,102445.22
2022-11-28T21:07:11.242Z,102447.00
2022-11-28T21:10:38.140Z,102448.78
2022-11-28T21:14:02.401Z,102451.34
2022-11-28T21:17:24.899Z,102453.94
2022-11-28T21:20:47.927Z,102454.78
2022-11-28T21:24:12.698Z,102447.91
2022-11-28T21:27:35.891Z,102454.84
2022-11-28T21:30:59.500Z,102459.94
2022-11-28T21:34:22.576Z,102458.19
2022-11-28T21:37:44.771Z,102465.03
2022-11-28T21:41:07.699Z,102467.53
2022-11-28T21:44:29.975Z,102472.69
2022-11-28T21:47:53.572Z,102458.00
2022-11-28T21:51:17.912Z,102469.41
2022-11-28T21:54:39.674Z,102476.28
2022-11-28T21:58:01.316Z,102471.97
2022-11-28T22:01:23.426Z,102475.41
2022-11-28T22:04:47.164Z,102485.66
2022-11-28T22:08:10.901Z,102481.47
2022-11-28T22:11:32.708Z,102477.13
2022-11-28T22:14:54.330Z,102482.44
2022-11-28T22:18:15.904Z,102478.91
2022-11-28T22:21:55.777Z,102485.78
2022-11-28T22:25:17.844Z,102480.53
2022-11-28T22:28:43.237Z,102479.84
2022-11-28T22:32:05.459Z,102487.59
2022-11-28T22:35:27.467Z,102488.44
2022-11-28T22:38:55.640Z,102485.00
2022-11-28T22:42:17.787Z,102490.13
2022-11-28T22:45:39.580Z,102485.84
2022-11-28T22:49:02.418Z,102480.72
2022-11-28T22:52:24.257Z,102485.03
2022-11-28T22:55:47.463Z,102482.44
2022-11-28T22:59:13.222Z,102482.50
2022-11-28T23:02:35.829Z,102481.66
2022-11-28T23:05:57.813Z,102485.94
2022-11-28T23:09:20.033Z,102483.41
2022-11-28T23:12:43.774Z,102492.03
2022-11-28T23:16:13.975Z,102486.81
2022-11-28T23:19:35.960Z,102495.47
2022-11-28T23:22:57.636Z,102491.31
2022-11-28T23:26:21.595Z,102493.06
2022-11-28T23:29:44.859Z,102496.50
2022-11-28T23:33:06.626Z,102494.78
2022-11-28T23:36:30.737Z,102498.22
2022-11-28T23:39:52.330Z,102500.78
2022-11-28T23:43:14.498Z,102506.78
2022-11-28T23:46:38.196Z,102505.06
2022-11-28T23:50:02.913Z,102510.28
2022-11-28T23:53:24.913Z,102508.56
2022-11-28T23:56:46.571Z,102514.56
